createdAt,value
2022-10-17T00:01:07.936Z,11.14
2022-10-17T00:03:38.806Z,11.12
2022-10-17T00:06:12.156Z,11.12
2022-10-17T00:08:41.140Z,11.18
2022-10-17T00:11:15.562Z,11.15
2022-10-17T00:13:43.736Z,11.13
2022-10-17T00:16:11.668Z,11.15
2022-10-17T00:18:39.668Z,11.14
2022-10-17T00:21:15.008Z,11.15
2022-10-17T00:23:42.937Z,11.18
2022-10-17T00:26:10.991Z,11.21
2022-10-17T00:28:39.055Z,11.29
2022-10-17T00:31:08.069Z,11.20
2022-10-17T00:33:36.719Z,11.18
2022-10-17T00:36:09.341Z,11.23
2022-10-17T00:38:37.807Z,11.17
2022-10-17T00:41:05.778Z,11.11
2022-10-17T00:44:03.227Z,11.07
2022-10-17T00:46:35.039Z,11.08
2022-10-17T00:49:10.201Z,11.13
2022-10-17T00:51:41.894Z,11.11
2022-10-17T00:54:12.921Z,11.03
2022-10-17T00:56:40.807Z,10.96
2022-10-17T00:59:11.513Z,10.94
2022-10-17T01:01:43.435Z,10.87
2022-10-17T01:04:11.488Z,10.83
2022-10-17T01:06:40.483Z,10.82
2022-10-17T01:09:08.393Z,10.82
2022-10-17T01:12:01.640Z,10.81
2022-10-17T01:15:00.677Z,10.83
2022-10-17T01:17:46.616Z,10.88
2022-10-17T01:20:51.717Z,10.89
2022-10-17T01:23:41.144Z,10.87
2022-10-17T01:26:23.100Z,10.81
2022-10-17T01:29:06.676Z,10.85
2022-10-17T01:31:49.194Z,10.90
2022-10-17T01:34:30.202Z,11.07
2022-10-17T01:37:03.930Z,11.22
2022-10-17T01:39:41.616Z,11.26
2022-10-17T01:42:43.130Z,11.30
2022-10-17T01:45:23.213Z,11.30
2022-10-17T01:47:53.582Z,11.40
2022-10-17T01:50:33.146Z,11.35
2022-10-17T01:53:16.590Z,11.36
2022-10-17T01:55:50.573Z,11.36
2022-10-17T01:58:28.181Z,11.44
2022-10-17T02:01:01.570Z,11.45
2022-10-17T02:03:34.562Z,11.41
2022-10-17T02:06:02.933Z,11.40
2022-10-17T02:08:49.431Z,11.43
2022-10-17T02:11:20.218Z,11.57
2022-10-17T02:14:25.854Z,11.53
2022-10-17T02:16:53.678Z,11.29
2022-10-17T02:19:27.683Z,11.26
2022-10-17T02:22:16.474Z,11.16
2022-10-17T02:24:55.862Z,11.24
2022-10-17T02:27:26.947Z,11.25
2022-10-17T02:30:05.847Z,11.17
2022-10-17T02:32:35.780Z,11.07
2022-10-17T02:35:07.497Z,10.97
2022-10-17T02:37:36.536Z,10.92
2022-10-17T02:40:06.763Z,10.91
2022-10-17T02:42:35.278Z,10.84
2022-10-17T02:45:05.907Z,10.82
2022-10-17T02:47:48.253Z,10.73
2022-10-17T02:50:16.404Z,10.73
2022-10-17T02:52:59.042Z,10.77
2022-10-17T02:55:33.585Z,10.81
2022-10-17T02:58:07.091Z,10.68
2022-10-17T03:00:41.858Z,10.78
2022-10-17T03:03:32.018Z,10.75
2022-10-17T03:06:02.974Z,10.81
2022-10-17T03:08:30.951Z,10.76
2022-10-17T03:10:58.852Z,10.90
2022-10-17T03:13:29.377Z,11.00
2022-10-17T03:15:58.169Z,10.96
2022-10-17T03:18:26.118Z,10.93
2022-10-17T03:20:58.793Z,10.91
2022-10-17T03:23:26.784Z,10.92
2022-10-17T03:25:54.705Z,10.94
2022-10-17T03:28:23.178Z,11.04
2022-10-17T03:30:51.214Z,11.07
2022-10-17T03:33:19.049Z,11.19
2022-10-17T03:35:46.935Z,11.15
2022-10-17T03:38:15.080Z,11.17
2022-10-17T03:40:42.945Z,11.30
2022-10-17T03:43:11.935Z,11.42
2022-10-17T03:45:41.640Z,11.36
2022-10-17T03:48:09.375Z,11.36
2022-10-17T03:50:37.344Z,11.25
2022-10-17T03:53:05.037Z,11.29
2022-10-17T03:55:33.748Z,11.30
2022-10-17T03:58:01.494Z,11.30
2022-10-17T04:00:30.005Z,11.18
2022-10-17T04:02:59.567Z,11.35
2022-10-17T04:05:28.044Z,11.45
2022-10-17T04:07:58.763Z,11.49
2022-10-17T04:10:48.846Z,11.52
2022-10-17T04:13:16.557Z,11.59
2022-10-17T04:15:58.033Z,11.59
2022-10-17T04:18:25.834Z,11.71
2022-10-17T04:20:54.400Z,11.73
2022-10-17T04:23:23.053Z,11.75
2022-10-17T04:26:03.986Z,11.79
2022-10-17T04:28:32.991Z,11.86
2022-10-17T04:31:05.875Z,11.89
2022-10-17T04:33:40.150Z,12.03
2022-10-17T04:36:14.497Z,12.11
2022-10-17T04:38:42.427Z,12.14
2022-10-17T04:41:16.350Z,12.10
2022-10-17T04:43:47.060Z,12.15
2022-10-17T04:46:19.562Z,12.18
2022-10-17T04:48:47.880Z,12.18
2022-10-17T04:51:20.695Z,12.24
2022-10-17T04:54:11.212Z,12.26
2022-10-17T04:56:42.640Z,12.25
2022-10-17T04:59:10.748Z,12.30
2022-10-17T05:01:40.960Z,12.37
2022-10-17T05:04:08.629Z,12.41
2022-10-17T05:06:38.175Z,12.29
2022-10-17T05:09:24.553Z,12.40
2022-10-17T05:11:52.714Z,12.32
2022-10-17T05:14:20.553Z,12.33
2022-10-17T05:16:50.358Z,12.28
2022-10-17T05:19:18.611Z,12.39
2022-10-17T05:21:50.158Z,12.32
2022-10-17T05:24:18.108Z,12.29
2022-10-17T05:26:45.973Z,12.30
2022-10-17T05:29:14.110Z,12.35
2022-10-17T05:31:47.209Z,12.41
2022-10-17T05:34:15.023Z,12.48
2022-10-17T05:36:43.611Z,12.60
2022-10-17T05:39:14.903Z,12.76
2022-10-17T05:41:43.305Z,12.87
2022-10-17T05:44:11.007Z,12.86
2022-10-17T05:46:42.086Z,12.79
2022-10-17T05:49:19.688Z,12.96
2022-10-17T05:52:00.177Z,12.95
2022-10-17T05:54:28.356Z,13.05
2022-10-17T05:56:57.434Z,13.04
2022-10-17T05:59:29.450Z,13.11
2022-10-17T06:02:17.727Z,13.19
2022-10-17T06:04:48.558Z,13.16
2022-10-17T06:07:17.100Z,13.18
2022-10-17T06:12:18.721Z,13.20
2022-10-17T06:14:47.434Z,13.10
2022-10-17T06:17:16.867Z,13.20
2022-10-17T06:19:45.533Z,13.29
2022-10-17T06:22:15.846Z,13.26
2022-10-17T06:24:44.370Z,13.26
2022-10-17T06:27:13.460Z,13.36
2022-10-17T06:29:42.383Z,13.41
2022-10-17T06:32:14.278Z,13.45
2022-10-17T06:34:46.013Z,13.64
2022-10-17T06:37:13.915Z,13.71
2022-10-17T06:39:42.868Z,13.91
2022-10-17T06:42:21.531Z,14.07
2022-10-17T06:45:07.582Z,14.10
2022-10-17T06:48:02.112Z,14.20
2022-10-17T06:50:52.333Z,14.45
2022-10-17T06:53:25.044Z,14.57
2022-10-17T06:56:09.452Z,14.77
2022-10-17T06:58:55.656Z,14.91
2022-10-17T07:01:26.793Z,15.00
2022-10-17T07:03:58.469Z,15.13
2022-10-17T07:06:26.426Z,15.38
2022-10-17T07:08:57.193Z,15.45
2022-10-17T07:11:25.892Z,15.67
2022-10-17T07:13:54.113Z,15.89
2022-10-17T07:16:22.931Z,16.14
2022-10-17T07:18:58.797Z,16.15
2022-10-17T07:21:26.611Z,16.32
2022-10-17T07:23:54.518Z,16.46
2022-10-17T07:26:23.248Z,16.98
2022-10-17T07:28:54.306Z,18.04
2022-10-17T07:31:33.416Z,18.95
2022-10-17T07:34:01.541Z,19.37
2022-10-17T07:36:30.178Z,20.12
2022-10-17T07:38:59.918Z,20.85
2022-10-17T07:41:28.426Z,21.87
2022-10-17T07:43:56.817Z,22.27
2022-10-17T07:46:31.054Z,22.87
2022-10-17T07:48:59.297Z,23.41
2022-10-17T07:51:27.968Z,24.12
2022-10-17T07:53:55.871Z,24.39
2022-10-17T07:56:24.879Z,24.66
2022-10-17T07:58:53.807Z,24.95
2022-10-17T08:01:21.572Z,25.45
2022-10-17T08:03:49.593Z,25.78
2022-10-17T08:06:17.884Z,25.71
2022-10-17T08:08:45.781Z,25.76
2022-10-17T08:11:15.701Z,26.54
2022-10-17T08:13:43.743Z,26.66
2022-10-17T08:16:13.570Z,26.07
2022-10-17T08:18:42.963Z,26.00
2022-10-17T08:21:13.097Z,26.05
2022-10-17T08:23:41.792Z,24.68
2022-10-17T08:26:13.286Z,23.69
2022-10-17T08:28:41.779Z,23.36
2022-10-17T08:31:19.400Z,23.44
2022-10-17T08:33:48.695Z,23.98
2022-10-17T08:36:19.494Z,24.37
2022-10-17T08:38:52.471Z,24.48
2022-10-17T08:41:38.673Z,24.57
2022-10-17T08:44:09.549Z,23.94
2022-10-17T08:46:42.656Z,24.17
2022-10-17T08:49:41.620Z,25.00
2022-10-17T08:52:27.837Z,26.27
2022-10-17T08:54:56.093Z,27.14
2022-10-17T08:57:23.828Z,27.55
2022-10-17T08:59:57.048Z,28.20
2022-10-17T09:02:52.824Z,28.08
2022-10-17T09:05:26.943Z,28.17
2022-10-17T09:08:06.786Z,28.61
2022-10-17T09:11:02.343Z,29.36
2022-10-17T09:14:06.830Z,29.63
2022-10-17T09:17:10.428Z,30.08
2022-10-17T09:19:59.843Z,29.72
2022-10-17T09:22:52.241Z,30.08
2022-10-17T09:25:21.432Z,29.69
2022-10-17T09:28:02.189Z,29.93
2022-10-17T09:30:49.423Z,30.30
2022-10-17T09:33:34.655Z,30.48
2022-10-17T09:36:16.551Z,30.56
2022-10-17T09:39:15.401Z,30.38
2022-10-17T09:41:48.715Z,30.75
2022-10-17T09:44:16.663Z,30.23
2022-10-17T09:47:04.590Z,29.45
2022-10-17T09:49:36.330Z,28.83
2022-10-17T09:52:10.277Z,28.82
2022-10-17T09:54:57.468Z,28.59
2022-10-17T09:57:26.409Z,28.49
2022-10-17T10:00:05.861Z,28.49
2022-10-17T10:02:41.284Z,28.75
2022-10-17T10:05:21.088Z,28.53
2022-10-17T10:08:06.224Z,27.46
2022-10-17T10:10:34.316Z,26.06
2022-10-17T10:13:28.282Z,25.01
2022-10-17T10:16:18.474Z,24.41
2022-10-17T10:18:48.728Z,24.05
2022-10-17T10:21:27.382Z,23.69
2022-10-17T10:24:09.890Z,23.52
2022-10-17T10:26:50.086Z,23.23
2022-10-17T10:29:32.545Z,22.96
2022-10-17T10:32:27.308Z,22.96
2022-10-17T10:35:08.582Z,22.88
2022-10-17T10:37:48.287Z,22.76
2022-10-17T10:40:18.641Z,22.76
2022-10-17T10:42:58.418Z,22.64
2022-10-17T10:45:48.530Z,22.77
2022-10-17T10:48:24.515Z,22.92
2022-10-17T10:51:16.454Z,22.88
2022-10-17T10:54:19.307Z,22.88
2022-10-17T10:56:56.401Z,22.83
2022-10-17T10:59:43.008Z,22.85
2022-10-17T11:02:27.722Z,22.63
2022-10-17T11:05:01.803Z,22.71
2022-10-17T11:07:45.799Z,22.51
2022-10-17T11:10:44.812Z,22.61
2022-10-17T11:13:28.960Z,22.74
2022-10-17T11:16:04.707Z,22.82
2022-10-17T11:19:00.467Z,22.75
2022-10-17T11:22:05.423Z,22.76
2022-10-17T11:24:56.984Z,22.79
2022-10-17T11:27:26.249Z,22.89
2022-10-17T11:29:54.066Z,23.10
2022-10-17T11:32:32.740Z,23.15
2022-10-17T11:35:20.331Z,23.20
2022-10-17T11:38:04.280Z,23.10
2022-10-17T11:40:36.160Z,23.14
2022-10-17T11:43:14.794Z,23.09
2022-10-17T11:45:47.551Z,23.19
2022-10-17T11:48:23.520Z,22.94
2022-10-17T11:54:28.877Z,22.70
2022-10-17T11:57:13.881Z,22.56
2022-10-17T12:00:23.244Z,22.60
2022-10-17T12:03:12.070Z,22.63
2022-10-17T12:05:57.516Z,22.82
2022-10-17T12:08:41.356Z,22.92
2022-10-17T12:11:24.799Z,22.68
2022-10-17T12:13:56.934Z,22.78
2022-10-17T12:16:24.954Z,22.70
2022-10-17T12:19:01.760Z,22.79
2022-10-17T12:21:50.485Z,22.71
2022-10-17T12:24:43.197Z,22.76
2022-10-17T12:27:46.080Z,22.94
2022-10-17T12:30:19.421Z,22.81
2022-10-17T12:33:22.591Z,22.58
2022-10-17T12:35:52.482Z,22.47
2022-10-17T12:38:27.883Z,22.54
2022-10-17T12:40:57.421Z,22.54
2022-10-17T12:43:28.320Z,22.64
2022-10-17T12:46:04.028Z,22.80
2022-10-17T12:48:37.883Z,22.71
2022-10-17T12:51:48.173Z,22.70
2022-10-17T12:54:18.518Z,22.59
2022-10-17T12:56:49.430Z,22.53
2022-10-17T12:59:28.226Z,22.60
2022-10-17T13:01:59.976Z,22.57
2022-10-17T13:04:30.626Z,22.64
2022-10-17T13:07:01.102Z,22.67
2022-10-17T13:09:32.616Z,22.67
2022-10-17T13:12:10.861Z,22.53
2022-10-17T13:14:42.284Z,22.49
2022-10-17T13:17:30.774Z,22.51
2022-10-17T13:19:58.902Z,22.50
2022-10-17T13:22:32.340Z,22.43
2022-10-17T13:25:15.202Z,22.30
2022-10-17T13:27:43.465Z,22.24
2022-10-17T13:30:29.312Z,22.15
2022-10-17T13:33:00.446Z,22.17
2022-10-17T13:35:59.893Z,21.95
2022-10-17T13:38:26.771Z,21.80
2022-10-17T13:41:01.636Z,21.80
2022-10-17T13:43:33.942Z,21.72
2022-10-17T13:46:25.488Z,21.75
2022-10-17T13:48:53.887Z,21.77
2022-10-17T13:51:22.243Z,21.76
2022-10-17T13:53:49.963Z,21.67
2022-10-17T13:56:29.275Z,21.57
2022-10-17T13:59:09.458Z,21.48
2022-10-17T14:01:39.089Z,21.40
2022-10-17T14:04:11.633Z,21.33
2022-10-17T14:06:49.843Z,21.36
2022-10-17T14:09:25.184Z,21.13
2022-10-17T14:12:03.857Z,21.10
2022-10-17T14:14:51.765Z,21.05
2022-10-17T14:17:29.159Z,20.86
2022-10-17T14:23:17.529Z,20.69
2022-10-17T14:25:41.012Z,20.72
2022-10-17T14:28:12.527Z,20.55
2022-10-17T14:30:58.345Z,20.48
2022-10-17T14:33:31.610Z,20.34
2022-10-17T14:36:01.519Z,20.22
2022-10-17T14:38:30.487Z,20.10
2022-10-17T14:41:41.340Z,19.98
2022-10-17T14:44:06.341Z,19.85
2022-10-17T14:46:36.230Z,19.73
2022-10-17T14:49:18.419Z,19.68
2022-10-17T14:52:14.903Z,19.60
2022-10-17T14:54:47.424Z,19.49
2022-10-17T14:57:50.852Z,19.43
2022-10-17T15:00:21.078Z,19.32
2022-10-17T15:02:50.216Z,19.23
2022-10-17T15:05:19.690Z,19.20
2022-10-17T15:07:47.526Z,19.14
2022-10-17T15:10:26.749Z,19.00
2022-10-17T15:12:59.258Z,18.98
2022-10-17T15:15:33.272Z,18.98
2022-10-17T15:18:01.386Z,18.81
2022-10-17T15:20:30.639Z,18.71
2022-10-17T15:23:01.434Z,18.63
2022-10-17T15:25:30.989Z,18.60
2022-10-17T15:27:59.073Z,18.50
2022-10-17T15:30:29.796Z,18.40
2022-10-17T15:32:57.794Z,18.31
2022-10-17T15:35:27.240Z,18.17
2022-10-17T15:37:55.371Z,18.06
2022-10-17T15:40:24.530Z,17.93
2022-10-17T15:42:52.802Z,17.84
2022-10-17T15:45:24.217Z,17.73
2022-10-17T15:48:05.281Z,17.74
2022-10-17T15:50:33.410Z,17.60
2022-10-17T15:53:01.165Z,17.45
2022-10-17T15:55:29.226Z,17.36
2022-10-17T15:57:57.038Z,17.27
2022-10-17T16:00:25.517Z,17.15
2022-10-17T16:02:53.270Z,17.05
2022-10-17T16:05:23.686Z,16.94
2022-10-17T16:07:52.175Z,16.85
2022-10-17T16:10:20.827Z,16.75
2022-10-17T16:12:50.493Z,16.67
2022-10-17T16:15:22.971Z,16.61
2022-10-17T16:17:51.866Z,16.49
2022-10-17T16:20:20.982Z,16.40
2022-10-17T16:22:49.744Z,16.36
2022-10-17T16:25:24.439Z,16.33
2022-10-17T16:27:55.034Z,16.21
2022-10-17T16:30:24.416Z,16.07
2022-10-17T16:32:52.884Z,16.03
2022-10-17T16:35:31.712Z,15.99
2022-10-17T16:38:02.603Z,15.89
2022-10-17T16:40:30.523Z,15.92
2022-10-17T16:42:59.816Z,15.85
2022-10-17T16:45:27.909Z,15.77
2022-10-17T16:47:55.861Z,15.75
2022-10-17T16:50:24.469Z,15.72
2022-10-17T16:52:52.246Z,15.71
2022-10-17T16:55:20.636Z,15.69
2022-10-17T16:57:49.286Z,15.64
2022-10-17T17:00:18.194Z,15.60
2022-10-17T17:02:48.340Z,15.61
2022-10-17T17:05:16.399Z,15.63
2022-10-17T17:07:44.143Z,15.72
2022-10-17T17:10:12.166Z,15.67
2022-10-17T17:12:39.853Z,15.82
2022-10-17T17:15:07.959Z,15.75
2022-10-17T17:17:49.719Z,15.68
2022-10-17T17:20:19.351Z,15.72
2022-10-17T17:22:47.076Z,15.74
2022-10-17T17:25:14.994Z,15.73
2022-10-17T17:27:42.668Z,15.67
2022-10-17T17:30:10.989Z,15.69
2022-10-17T17:32:38.698Z,15.74
2022-10-17T17:35:07.180Z,15.73
2022-10-17T17:37:34.962Z,15.64
2022-10-17T17:40:02.923Z,15.61
2022-10-17T17:42:30.681Z,15.52
2022-10-17T17:44:58.718Z,15.47
2022-10-17T17:47:29.864Z,15.59
2022-10-17T17:49:58.068Z,15.50
2022-10-17T17:52:25.911Z,15.54
2022-10-17T17:54:53.880Z,15.48
2022-10-17T17:57:21.833Z,15.49
2022-10-17T17:59:50.168Z,15.71
2022-10-17T18:02:17.940Z,15.59
2022-10-17T18:04:46.001Z,15.67
2022-10-17T18:07:13.959Z,15.72
2022-10-17T18:09:41.886Z,15.64
2022-10-17T18:12:09.663Z,15.78
2022-10-17T18:14:37.593Z,15.76
2022-10-17T18:17:05.268Z,15.71
2022-10-17T18:19:33.598Z,15.83
2022-10-17T18:22:01.423Z,15.75
2022-10-17T18:24:29.345Z,15.71
2022-10-17T18:26:59.823Z,15.80
2022-10-17T18:29:29.513Z,15.85
2022-10-17T18:31:57.606Z,15.90
2022-10-17T18:34:25.666Z,15.92
2022-10-17T18:36:54.068Z,15.87
2022-10-17T18:39:21.993Z,16.11
2022-10-17T18:41:49.905Z,16.02
2022-10-17T18:44:17.817Z,16.07
2022-10-17T18:49:21.301Z,16.01
2022-10-17T18:51:49.262Z,15.97
2022-10-17T18:54:20.485Z,15.94
2022-10-17T18:56:51.145Z,15.96
2022-10-17T18:59:20.220Z,16.01
2022-10-17T19:01:48.611Z,15.97
2022-10-17T19:04:17.015Z,16.01
2022-10-17T19:06:44.857Z,16.00
2022-10-17T19:09:14.443Z,15.96
2022-10-17T19:11:42.906Z,15.95
2022-10-17T19:14:15.461Z,15.96
2022-10-17T19:16:50.923Z,15.84
2022-10-17T19:19:22.487Z,15.87
2022-10-17T19:21:50.941Z,15.88
2022-10-17T19:24:22.107Z,15.93
2022-10-17T19:26:53.438Z,15.82
2022-10-17T19:29:24.277Z,15.83
2022-10-17T19:31:52.548Z,15.78
2022-10-17T19:34:20.583Z,15.72
2022-10-17T19:36:48.523Z,15.68
2022-10-17T19:39:19.352Z,15.57
2022-10-17T19:41:48.250Z,15.65
2022-10-17T19:44:16.957Z,15.56
2022-10-17T19:46:46.717Z,15.55
2022-10-17T19:49:15.417Z,15.49
2022-10-17T19:51:43.408Z,15.41
2022-10-17T19:54:11.782Z,15.43
2022-10-17T19:56:40.412Z,15.40
2022-10-17T19:59:11.356Z,15.38
2022-10-17T20:01:39.321Z,15.39
2022-10-17T20:04:08.848Z,15.40
2022-10-17T20:06:36.910Z,15.41
2022-10-17T20:09:06.036Z,15.23
2022-10-17T20:11:34.229Z,15.20
2022-10-17T20:14:02.132Z,15.14
2022-10-17T20:16:32.030Z,15.04
2022-10-17T20:19:06.095Z,15.31
2022-10-17T20:21:39.464Z,15.20
2022-10-17T20:24:12.135Z,15.29
2022-10-17T20:26:40.828Z,15.27
2022-10-17T20:29:15.410Z,15.32
2022-10-17T20:31:44.662Z,15.16
2022-10-17T20:34:15.142Z,15.23
2022-10-17T20:36:42.932Z,15.12
2022-10-17T20:39:13.061Z,15.19
2022-10-17T20:41:41.754Z,15.10
2022-10-17T20:44:10.436Z,15.05
2022-10-17T20:46:44.671Z,15.03
2022-10-17T20:49:21.326Z,15.15
2022-10-17T20:51:49.308Z,15.14
2022-10-17T20:54:17.449Z,15.14
2022-10-17T20:56:45.232Z,15.05
2022-10-17T20:59:16.123Z,15.06
2022-10-17T21:01:45.411Z,14.92
2022-10-17T21:07:02.237Z,15.01
2022-10-17T21:09:30.653Z,14.91
2022-10-17T21:11:58.677Z,14.97
2022-10-17T21:14:26.746Z,14.96
2022-10-17T21:16:54.603Z,14.79
2022-10-17T21:19:22.937Z,14.84
2022-10-17T21:21:51.013Z,14.89
2022-10-17T21:24:20.823Z,14.92
2022-10-17T21:26:55.294Z,14.73
2022-10-17T21:29:24.363Z,14.70
2022-10-17T21:31:52.887Z,14.75
2022-10-17T21:34:24.668Z,14.62
2022-10-17T21:36:52.930Z,14.59
2022-10-17T21:39:23.004Z,14.70
2022-10-17T21:41:51.645Z,14.64
2022-10-17T21:44:23.440Z,14.84
2022-10-17T21:46:52.178Z,14.80
2022-10-17T21:49:23.449Z,14.77
2022-10-17T21:51:54.414Z,14.75
2022-10-17T21:54:23.615Z,14.69
2022-10-17T21:56:51.645Z,14.61
2022-10-17T21:59:19.513Z,14.65
2022-10-17T22:01:47.415Z,14.58
2022-10-17T22:04:18.992Z,14.58
2022-10-17T22:06:51.239Z,14.55
2022-10-17T22:09:23.149Z,14.51
2022-10-17T22:11:53.721Z,14.60
2022-10-17T22:14:23.629Z,14.53
2022-10-17T22:16:51.573Z,14.44
2022-10-17T22:19:25.189Z,14.54
2022-10-17T22:21:53.616Z,14.44
2022-10-17T22:24:22.483Z,14.37
2022-10-17T22:26:51.027Z,14.36
2022-10-17T22:29:19.044Z,14.40
2022-10-17T22:31:47.042Z,14.36
2022-10-17T22:34:16.350Z,14.40
2022-10-17T22:36:44.719Z,14.32
2022-10-17T22:39:12.971Z,14.24
2022-10-17T22:41:40.693Z,14.23
2022-10-17T22:44:08.691Z,14.02
2022-10-17T22:46:36.601Z,14.03
2022-10-17T22:49:04.853Z,13.94
2022-10-17T22:51:33.025Z,13.92
2022-10-17T22:54:02.311Z,13.84
2022-10-17T22:56:30.110Z,13.80
2022-10-17T22:58:58.109Z,13.81
2022-10-17T23:01:26.510Z,13.99
2022-10-17T23:03:54.505Z,13.83
2022-10-17T23:06:22.616Z,13.67
2022-10-17T23:08:51.061Z,13.69
2022-10-17T23:11:19.144Z,13.59
2022-10-17T23:13:47.036Z,13.65
2022-10-17T23:16:14.870Z,13.62
2022-10-17T23:18:44.161Z,13.65
2022-10-17T23:21:12.146Z,13.58
2022-10-17T23:23:40.003Z,13.61
2022-10-17T23:26:12.754Z,13.51
2022-10-17T23:28:42.468Z,13.48
2022-10-17T23:31:19.393Z,13.47
2022-10-17T23:33:49.124Z,13.49
2022-10-17T23:36:19.178Z,13.62
2022-10-17T23:38:48.673Z,13.50
2022-10-17T23:41:17.265Z,13.52
2022-10-17T23:43:45.632Z,13.60
2022-10-17T23:46:13.849Z,13.59
2022-10-17T23:48:42.196Z,13.55
2022-10-17T23:51:10.774Z,13.47
2022-10-17T23:53:39.543Z,13.47
2022-10-17T23:56:08.718Z,13.45
2022-10-17T23:58:37.588Z,13.49
